Time;durP1;ratioP1;P1;durP2;ratioP2;P2;SDS_P1;SDS_P2;PMS_P1;PMS_P2;Temp;Humidity;BMP_temperature;BMP_pressure;BME280_temperature;BME280_humidity;BME280_pressure;Samples;Min_cycle;Max_cycle;Signal;HPM_P1;HPM_P2
2022/03/03 00:01:38;;;;;;;30.77;12.77;;;0.90;84.50;;;;;;5032177;28;20026;-88
2022/03/03 00:04:05;;;;;;;27.08;11.40;;;1.00;84.90;;;;;;5028148;28;20032;-89
2022/03/03 00:06:31;;;;;;;30.83;11.63;;;0.90;85.00;;;;;;5029107;28;20050;-87
2022/03/03 00:08:57;;;;;;;28.35;11.35;;;0.90;85.30;;;;;;5016081;28;20030;-88
2022/03/03 00:11:23;;;;;;;30.70;11.43;;;0.90;85.90;;;;;;5017553;28;20390;-88
2022/03/03 00:13:49;;;;;;;29.73;12.55;;;0.80;86.10;;;;;;4998923;28;20033;-88
2022/03/03 00:16:15;;;;;;;34.13;12.88;;;0.80;86.50;;;;;;4999455;28;20072;-89
2022/03/03 00:18:41;;;;;;;28.73;10.65;;;0.80;86.90;;;;;;5017182;28;20027;-87
2022/03/03 00:21:07;;;;;;;24.35;9.98;;;0.80;87.40;;;;;;5019985;28;20029;-89
2022/03/03 00:23:33;;;;;;;34.13;12.68;;;0.80;87.80;;;;;;5015998;28;20065;-88
2022/03/03 00:25:59;;;;;;;27.70;11.40;;;0.80;88.00;;;;;;5019864;28;20006;-89
2022/03/03 00:28:26;;;;;;;28.13;11.20;;;0.80;88.30;;;;;;5024425;28;20578;-89
2022/03/03 00:30:52;;;;;;;25.60;11.27;;;0.80;88.70;;;;;;5018076;28;20019;-87
2022/03/03 00:33:18;;;;;;;29.05;11.70;;;0.80;89.50;;;;;;5027599;28;20049;-88
2022/03/03 00:35:45;;;;;;;27.40;11.57;;;0.80;89.70;;;;;;5033758;28;20014;-87
2022/03/03 00:38:11;;;;;;;33.97;11.70;;;0.70;90.00;;;;;;5033652;28;20045;-87
2022/03/03 00:40:37;;;;;;;29.33;11.93;;;0.80;90.20;;;;;;5028669;28;20454;-89
2022/03/03 00:43:06;;;;;;;28.42;12.43;;;0.70;90.30;;;;;;5029321;28;20030;-87
2022/03/03 00:45:32;;;;;;;30.65;12.88;;;0.70;90.30;;;;;;5026816;28;20018;-90
2022/03/03 00:48:00;;;;;;;30.42;11.93;;;0.70;90.20;;;;;;5036284;28;20030;-87
2022/03/03 00:50:26;;;;;;;28.38;11.98;;;0.70;90.00;;;;;;5027755;28;20037;-87
2022/03/03 00:52:52;;;;;;;30.85;11.82;;;0.60;90.20;;;;;;5032420;28;20033;-86
2022/03/03 00:55:18;;;;;;;32.72;13.10;;;0.70;90.20;;;;;;5029938;28;20026;-88
2022/03/03 00:57:44;;;;;;;26.90;12.23;;;0.60;90.10;;;;;;5029182;28;20065;-89
2022/03/03 01:00:13;;;;;;;38.33;13.02;;;0.70;90.20;;;;;;5012487;28;20026;-88
2022/03/03 01:02:39;;;;;;;33.55;12.18;;;0.60;90.30;;;;;;5030476;28;20029;-89
2022/03/03 01:05:05;;;;;;;33.47;12.13;;;0.60;90.40;;;;;;5036739;28;20038;-86
2022/03/03 01:07:32;;;;;;;33.40;12.43;;;0.60;90.50;;;;;;5037798;28;20042;-86
2022/03/03 01:09:58;;;;;;;35.75;13.45;;;0.60;90.50;;;;;;5038428;28;20019;-86
2022/03/03 01:12:23;;;;;;;27.63;11.93;;;0.50;90.60;;;;;;5038369;28;20018;-87
2022/03/03 01:14:49;;;;;;;28.92;12.63;;;0.60;90.50;;;;;;5037662;28;20014;-87
2022/03/03 01:17:16;;;;;;;30.73;12.27;;;0.60;90.30;;;;;;5038196;28;20021;-85
2022/03/03 01:19:42;;;;;;;33.63;11.90;;;0.50;90.40;;;;;;5037597;28;20010;-86
2022/03/03 01:22:08;;;;;;;31.20;12.63;;;0.60;90.60;;;;;;5019244;28;20034;-87
2022/03/03 01:24:34;;;;;;;34.03;13.75;;;0.50;90.80;;;;;;5033321;28;20089;-87
2022/03/03 01:27:01;;;;;;;36.70;13.55;;;0.50;90.90;;;;;;5034408;28;20105;-87
2022/03/03 01:29:27;;;;;;;42.67;13.38;;;0.50;91.10;;;;;;5037551;28;20052;-86
2022/03/03 01:31:53;;;;;;;27.13;11.95;;;0.50;91.20;;;;;;5037387;28;20049;-86
2022/03/03 01:34:18;;;;;;;29.90;13.20;;;0.50;91.20;;;;;;5038020;28;20026;-85
2022/03/03 01:36:44;;;;;;;32.75;13.50;;;0.50;91.30;;;;;;5038303;28;20037;-86
2022/03/03 01:39:11;;;;;;;33.28;13.20;;;0.50;91.60;;;;;;5038068;28;20072;-86
2022/03/03 01:41:38;;;;;;;29.55;12.75;;;0.50;91.70;;;;;;5037136;28;20134;-86
2022/03/03 01:44:04;;;;;;;29.73;12.65;;;0.40;92.00;;;;;;5017383;28;20022;-87
2022/03/03 01:46:32;;;;;;;32.75;12.50;;;0.40;92.10;;;;;;5034453;28;20028;-86
2022/03/03 01:48:58;;;;;;;33.58;12.82;;;0.40;92.40;;;;;;5030931;28;20125;-88
2022/03/03 01:51:23;;;;;;;34.28;12.95;;;0.40;92.40;;;;;;5033466;28;20034;-88
2022/03/03 01:53:49;;;;;;;28.98;13.13;;;0.40;92.40;;;;;;5036184;28;20155;-85
2022/03/03 01:56:16;;;;;;;31.30;12.75;;;0.30;92.30;;;;;;5037948;28;20021;-86
2022/03/03 01:58:43;;;;;;;33.60;13.10;;;0.30;92.50;;;;;;5037370;28;20014;-88
2022/03/03 02:01:09;;;;;;;34.78;13.02;;;0.30;92.30;;;;;;5019342;28;20060;-87
2022/03/03 02:03:34;;;;;;;32.47;13.00;;;0.30;92.10;;;;;;5036095;28;20037;-88
2022/03/03 02:06:00;;;;;;;30.23;12.05;;;0.30;92.40;;;;;;5036019;28;20030;-88
2022/03/03 02:08:27;;;;;;;30.50;11.85;;;0.30;92.30;;;;;;5036114;28;20026;-85
2022/03/03 02:10:53;;;;;;;32.10;12.93;;;0.30;92.60;;;;;;5020715;28;20018;-86
2022/03/03 02:13:19;;;;;;;32.40;13.40;;;0.30;92.90;;;;;;5021149;28;20018;-87
2022/03/03 02:15:53;;;;;;;34.47;13.77;;;0.30;93.10;;;;;;5038210;28;20033;-84
2022/03/03 02:18:19;;;;;;;29.30;12.68;;;0.30;93.20;;;;;;5038773;28;20018;-87
2022/03/03 02:20:45;;;;;;;40.28;13.77;;;0.30;93.60;;;;;;5037190;28;20040;-86
2022/03/03 02:23:11;;;;;;;33.05;13.52;;;0.20;94.00;;;;;;5037266;28;20045;-87
2022/03/03 02:25:37;;;;;;;30.83;13.80;;;0.20;96.00;;;;;;5037671;28;20022;-86
2022/03/03 02:28:04;;;;;;;35.80;14.57;;;0.20;97.10;;;;;;5036984;28;20038;-87
2022/03/03 02:30:30;;;;;;;33.70;13.05;;;0.20;97.80;;;;;;5036936;28;20018;-88
2022/03/03 02:32:56;;;;;;;34.50;13.30;;;0.20;98.10;;;;;;5034127;28;20085;-87
2022/03/03 02:35:22;;;;;;;36.65;14.07;;;0.20;98.50;;;;;;5015844;28;20034;-89
2022/03/03 02:37:48;;;;;;;34.60;14.52;;;0.20;98.80;;;;;;5037785;28;20022;-87
2022/03/03 02:40:22;;;;;;;32.05;13.27;;;0.20;99.10;;;;;;5034945;28;20013;-88
2022/03/03 02:42:49;;;;;;;35.78;15.23;;;0.10;99.40;;;;;;5035847;28;20473;-88
2022/03/03 02:45:15;;;;;;;33.40;14.68;;;0.10;99.60;;;;;;5036195;28;20085;-86
2022/03/03 02:47:42;;;;;;;33.58;12.90;;;0.10;99.70;;;;;;5036855;28;20033;-88
2022/03/03 02:50:09;;;;;;;36.15;13.80;;;0.10;99.90;;;;;;5036981;28;20037;-88
2022/03/03 02:52:35;;;;;;;31.00;13.77;;;0.10;99.90;;;;;;5039071;28;20053;-86
2022/03/03 02:55:02;;;;;;;33.42;13.65;;;0.10;99.90;;;;;;5023236;28;20026;-87
2022/03/03 03:00:13;;;;;;;34.55;13.10;;;0.20;99.90;;;;;;5040927;28;20026;-87
2022/03/03 03:02:39;;;;;;;38.85;13.73;;;0.20;99.80;;;;;;5040434;28;20037;-87
2022/03/03 03:05:05;;;;;;;38.33;14.40;;;0.20;99.70;;;;;;5041060;28;20018;-87
2022/03/03 03:07:31;;;;;;;33.45;15.05;;;0.20;99.60;;;;;;5040943;28;20078;-85
2022/03/03 03:09:57;;;;;;;35.28;13.95;;;0.20;99.40;;;;;;5040953;28;20082;-87
2022/03/03 03:12:23;;;;;;;31.23;12.88;;;0.20;99.30;;;;;;5040230;28;20028;-86
2022/03/03 03:14:49;;;;;;;35.83;14.13;;;0.10;98.90;;;;;;5040874;28;20010;-87
2022/03/03 03:17:14;;;;;;;32.78;13.13;;;0.20;98.60;;;;;;5040842;28;20057;-86
2022/03/03 03:19:41;;;;;;;32.60;13.50;;;0.10;98.50;;;;;;5040791;28;20014;-87
2022/03/03 03:22:06;;;;;;;31.63;13.52;;;0.10;98.40;;;;;;5040191;28;20053;-87
2022/03/03 03:24:32;;;;;;;37.40;13.95;;;0.10;98.10;;;;;;5023314;28;20038;-87
2022/03/03 03:27:01;;;;;;;38.38;14.85;;;0.10;98.20;;;;;;5039463;28;20046;-87
2022/03/03 03:29:27;;;;;;;34.92;13.65;;;0.10;98.40;;;;;;5034469;28;20098;-88
2022/03/03 03:31:53;;;;;;;34.70;14.35;;;0.10;97.80;;;;;;5031353;28;20054;-88
2022/03/03 03:34:19;;;;;;;32.45;15.30;;;0.10;97.50;;;;;;5030881;28;20054;-87
2022/03/03 03:36:45;;;;;;;36.95;13.82;;;0.10;97.10;;;;;;5035366;28;20041;-89
2022/03/03 03:39:11;;;;;;;35.63;14.80;;;0.10;96.70;;;;;;5034562;28;20088;-88
2022/03/03 03:41:36;;;;;;;31.70;13.23;;;0.20;97.00;;;;;;5030911;28;20026;-87
2022/03/03 03:44:02;;;;;;;37.08;14.02;;;0.10;97.00;;;;;;5012779;28;20086;-89
2022/03/03 03:46:28;;;;;;;28.27;12.95;;;0.10;96.90;;;;;;5026233;28;20029;-88
2022/03/03 03:48:54;;;;;;;38.65;14.23;;;0.10;97.00;;;;;;5038638;28;20022;-88
2022/03/03 03:51:20;;;;;;;40.30;15.30;;;0.10;97.10;;;;;;5109078;23;20062;-89
2022/03/03 03:53:45;;;;;;;38.45;14.23;;;0.20;97.50;;;;;;5037554;28;20022;-90
2022/03/03 03:56:11;;;;;;;35.83;15.45;;;0.10;98.10;;;;;;5039597;28;20010;-91
2022/03/03 03:58:37;;;;;;;36.42;14.45;;;0.10;98.40;;;;;;5039987;28;20030;-90
2022/03/03 04:01:03;;;;;;;34.78;14.98;;;0.10;99.00;;;;;;5055303;28;20044;-89
2022/03/03 04:03:29;;;;;;;35.10;15.40;;;0.10;99.40;;;;;;5059984;28;20049;-89
2022/03/03 04:05:55;;;;;;;42.10;15.95;;;0.10;99.90;;;;;;5059633;28;20009;-90
2022/03/03 04:08:20;;;;;;;37.60;15.90;;;0.00;99.90;;;;;;5060501;28;20041;-89
2022/03/03 04:10:47;;;;;;;36.45;15.55;;;0.00;99.90;;;;;;5059474;28;20018;-89
2022/03/03 04:13:15;;;;;;;39.75;15.60;;;-0.10;99.90;;;;;;5052069;28;20034;-89
2022/03/03 04:15:41;;;;;;;32.08;14.63;;;-0.10;99.90;;;;;;5045698;28;20049;-89
2022/03/03 04:18:07;;;;;;;37.58;16.23;;;-0.20;99.90;;;;;;5052861;28;20018;-89
2022/03/03 04:20:33;;;;;;;36.08;15.43;;;-0.30;99.90;;;;;;5059617;28;20010;-88
2022/03/03 04:22:59;;;;;;;46.78;16.83;;;-0.30;99.90;;;;;;5060051;28;20022;-88
2022/03/03 04:25:25;;;;;;;37.78;16.02;;;-0.30;99.90;;;;;;5042789;28;20021;-89
2022/03/03 04:27:52;;;;;;;42.10;16.38;;;-0.40;99.90;;;;;;5059471;28;20022;-89
2022/03/03 04:30:17;;;;;;;34.90;16.42;;;-0.40;99.90;;;;;;5041998;28;20010;-89
2022/03/03 04:32:43;;;;;;;37.38;16.42;;;-0.50;99.90;;;;;;5051632;28;20088;-89
2022/03/03 04:35:10;;;;;;;43.53;16.00;;;-0.50;99.90;;;;;;5050109;28;20040;-90
2022/03/03 04:37:37;;;;;;;41.50;16.60;;;-0.50;99.90;;;;;;5049201;28;20017;-88
2022/03/03 04:40:04;;;;;;;39.53;16.40;;;-0.60;99.90;;;;;;5046713;28;20018;-90
2022/03/03 04:42:30;;;;;;;36.70;15.30;;;-0.60;99.90;;;;;;5030989;28;20030;-88
2022/03/03 04:44:56;;;;;;;38.35;16.38;;;-0.60;99.90;;;;;;5052957;28;20032;-89
2022/03/03 04:47:22;;;;;;;39.72;16.42;;;-0.70;99.90;;;;;;5052763;28;20033;-90
2022/03/03 04:49:48;;;;;;;33.20;15.23;;;-0.70;99.90;;;;;;5053791;28;20060;-88
2022/03/03 04:52:15;;;;;;;40.45;15.50;;;-0.70;99.90;;;;;;5055471;28;20046;-89
2022/03/03 04:54:42;;;;;;;44.40;16.02;;;-0.70;99.90;;;;;;5055311;28;20013;-89
2022/03/03 04:57:08;;;;;;;42.47;15.85;;;-0.70;99.90;;;;;;5053682;28;20040;-88
2022/03/03 04:59:34;;;;;;;39.72;16.58;;;-0.70;99.90;;;;;;5040006;28;20014;-90
2022/03/03 05:01:59;;;;;;;43.80;16.98;;;-0.80;99.90;;;;;;5058818;28;20026;-88
2022/03/03 05:04:25;;;;;;;39.28;17.13;;;-0.80;99.90;;;;;;5057762;28;20030;-89
2022/03/03 05:06:51;;;;;;;39.42;17.30;;;-0.80;99.90;;;;;;5057805;28;20040;-88
2022/03/03 05:09:17;;;;;;;44.92;17.15;;;-0.80;99.90;;;;;;5057715;28;20014;-88
2022/03/03 05:11:44;;;;;;;43.42;16.73;;;-0.80;99.90;;;;;;5049879;28;20037;-86
2022/03/03 05:14:10;;;;;;;49.42;17.52;;;-0.80;99.90;;;;;;5046280;28;20026;-88
2022/03/03 05:16:36;;;;;;;41.30;16.92;;;-0.80;99.90;;;;;;5029681;28;20029;-88
2022/03/03 05:19:03;;;;;;;42.15;17.10;;;-0.90;99.90;;;;;;5052363;28;20009;-89
2022/03/03 05:21:30;;;;;;;47.47;16.98;;;-0.90;99.90;;;;;;5051546;28;20033;-89
2022/03/03 05:23:56;;;;;;;48.22;17.95;;;-0.90;99.90;;;;;;5045033;28;20026;-88
2022/03/03 05:26:22;;;;;;;39.45;16.23;;;-0.90;99.90;;;;;;5056003;28;20032;-89
2022/03/03 05:28:47;;;;;;;44.45;17.75;;;-1.00;99.90;;;;;;5050623;28;20116;-90
2022/03/03 05:31:13;;;;;;;40.38;16.25;;;-1.00;99.90;;;;;;5031977;28;20021;-90
2022/03/03 05:33:40;;;;;;;40.67;17.45;;;-1.00;99.90;;;;;;5047485;28;20030;-89
2022/03/03 05:36:08;;;;;;;44.78;17.45;;;-1.10;99.90;;;;;;5046781;28;20025;-89
2022/03/03 05:38:35;;;;;;;41.38;17.67;;;-1.10;99.90;;;;;;5045206;28;20021;-89
2022/03/03 05:41:02;;;;;;;42.75;18.08;;;-1.10;99.90;;;;;;5043642;28;20056;-89
2022/03/03 05:43:29;;;;;;;39.70;17.13;;;-1.20;99.90;;;;;;5045715;28;20025;-90
2022/03/03 05:45:55;;;;;;;44.88;18.67;;;-1.20;99.90;;;;;;5046578;28;20055;-90
2022/03/03 05:48:23;;;;;;;46.25;17.98;;;-1.20;99.90;;;;;;5047318;28;20118;-88
2022/03/03 05:50:49;;;;;;;42.88;19.33;;;-1.20;99.90;;;;;;5051180;28;20044;-89
2022/03/03 05:53:16;;;;;;;50.40;17.77;;;-1.20;99.90;;;;;;5057304;28;20022;-89
2022/03/03 05:55:49;;;;;;;40.83;17.63;;;-1.20;99.90;;;;;;5055445;28;20037;-89
2022/03/03 05:58:16;;;;;;;49.30;18.05;;;-1.30;99.90;;;;;;5057864;28;20077;-89
2022/03/03 06:00:47;;;;;;;47.45;16.15;;;-1.30;99.90;;;;;;5055853;28;20032;-89
2022/03/03 06:03:19;;;;;;;44.55;17.50;;;-1.30;99.90;;;;;;5036423;28;20155;-88
2022/03/03 06:05:50;;;;;;;38.22;16.55;;;-1.30;99.90;;;;;;5048244;28;20025;-89
2022/03/03 06:08:20;;;;;;;43.97;18.13;;;-1.30;99.90;;;;;;5032163;28;20030;-87
2022/03/03 06:10:50;;;;;;;40.70;17.08;;;-1.20;99.90;;;;;;5050541;28;20040;-87
2022/03/03 06:13:35;;;;;;;36.42;16.58;;;-1.20;99.90;;;;;;5049491;28;20029;-87
2022/03/03 06:16:02;;;;;;;42.65;16.88;;;-1.10;99.90;;;;;;5049704;28;20038;-88
2022/03/03 06:18:33;;;;;;;39.97;16.30;;;-1.10;99.90;;;;;;5050212;28;20033;-89
2022/03/03 06:21:00;;;;;;;44.03;15.70;;;-1.00;99.90;;;;;;5053571;28;20057;-88
2022/03/03 06:23:26;;;;;;;41.58;15.98;;;-1.00;99.90;;;;;;5046730;28;20029;-88
2022/03/03 06:26:04;;;;;;;38.63;16.42;;;-0.90;99.90;;;;;;5047217;28;20116;-88
2022/03/03 06:28:31;;;;;;;39.22;16.42;;;-0.90;99.90;;;;;;5045756;28;20068;-89
2022/03/03 06:30:57;;;;;;;41.92;16.98;;;-0.80;99.90;;;;;;5046466;28;20112;-87
2022/03/03 06:33:25;;;;;;;40.30;16.77;;;-0.70;99.90;;;;;;5050934;28;20026;-86
2022/03/03 06:35:51;;;;;;;45.47;15.95;;;-0.70;99.90;;;;;;5057003;28;20029;-87
2022/03/03 06:38:17;;;;;;;43.03;17.25;;;-0.50;99.90;;;;;;5059768;28;20053;-87
2022/03/03 06:40:43;;;;;;;35.70;16.05;;;-0.40;99.90;;;;;;5060086;28;20029;-87
2022/03/03 06:43:09;;;;;;;39.10;16.65;;;-0.40;99.90;;;;;;5061042;28;20017;-85
2022/03/03 06:45:34;;;;;;;40.28;17.20;;;-0.40;99.90;;;;;;5060941;28;20021;-86
2022/03/03 06:48:04;;;;;;;38.42;16.45;;;-0.30;99.90;;;;;;5060326;28;20053;-86
2022/03/03 06:50:33;;;;;;;42.65;16.08;;;-0.20;99.90;;;;;;5042119;28;20033;-87
2022/03/03 06:53:01;;;;;;;46.50;16.00;;;-0.10;99.90;;;;;;5060289;28;20023;-87
2022/03/03 06:55:27;;;;;;;37.15;15.52;;;0.00;99.90;;;;;;5060487;28;20017;-86
2022/03/03 06:57:55;;;;;;;38.92;15.82;;;0.10;99.90;;;;;;5059979;28;20041;-87
2022/03/03 07:00:23;;;;;;;38.63;15.93;;;0.20;99.90;;;;;;5060248;28;20056;-88
2022/03/03 07:02:50;;;;;;;40.78;16.00;;;0.30;99.90;;;;;;5064959;28;20053;-87
2022/03/03 07:05:16;;;;;;;33.72;14.77;;;0.30;99.90;;;;;;5049633;28;20047;-87
2022/03/03 07:07:44;;;;;;;36.63;15.40;;;0.40;99.90;;;;;;5036542;28;20029;-87
2022/03/03 07:10:15;;;;;;;38.70;15.98;;;0.40;99.90;;;;;;5046198;28;20021;-87
2022/03/03 07:12:41;;;;;;;36.30;15.32;;;0.50;99.90;;;;;;5044385;28;20026;-88
2022/03/03 07:15:09;;;;;;;35.90;15.55;;;0.50;99.90;;;;;;5032504;28;20053;-87
2022/03/03 07:17:51;;;;;;;35.72;15.40;;;0.70;99.90;;;;;;5028501;28;20037;-88
2022/03/03 07:20:35;;;;;;;32.55;13.68;;;0.80;99.60;;;;;;5047263;28;20140;-85
2022/03/03 07:23:07;;;;;;;37.05;16.10;;;0.90;99.10;;;;;;5045853;28;20039;-88
2022/03/03 07:25:41;;;;;;;36.63;14.98;;;1.10;98.90;;;;;;5055883;28;20072;-87
2022/03/03 07:28:09;;;;;;;44.63;15.32;;;1.10;98.90;;;;;;5033391;28;20045;-88
2022/03/03 07:30:41;;;;;;;37.67;15.38;;;1.30;98.80;;;;;;5048227;28;20400;-85
2022/03/03 07:33:13;;;;;;;30.67;14.00;;;1.40;98.00;;;;;;5049200;28;20037;-88
2022/03/03 07:35:42;;;;;;;31.48;14.25;;;1.60;97.60;;;;;;5049403;28;20025;-87
2022/03/03 07:38:14;;;;;;;36.63;14.50;;;1.80;96.90;;;;;;5028087;28;20101;-88
2022/03/03 07:40:42;;;;;;;42.35;14.48;;;2.00;96.30;;;;;;5009883;28;20037;-88
2022/03/03 07:43:09;;;;;;;40.08;15.45;;;2.20;95.30;;;;;;5028533;28;20049;-88
2022/03/03 07:45:35;;;;;;;37.70;14.98;;;2.40;94.40;;;;;;5028712;28;20030;-88
2022/03/03 07:48:01;;;;;;;32.83;14.23;;;2.60;93.30;;;;;;5012606;28;20121;-88
2022/03/03 07:50:27;;;;;;;35.92;14.50;;;2.70;92.50;;;;;;5032979;28;20068;-89
2022/03/03 07:52:54;;;;;;;40.97;15.85;;;2.80;92.50;;;;;;5031691;28;20006;-89
2022/03/03 07:55:22;;;;;;;39.50;15.35;;;2.80;92.50;;;;;;5037922;28;20038;-88
2022/03/03 07:57:57;;;;;;;37.72;15.93;;;3.00;92.40;;;;;;5029947;28;20022;-89
2022/03/03 08:00:23;;;;;;;35.58;15.95;;;3.00;92.20;;;;;;5013084;28;20090;-89
2022/03/03 08:02:53;;;;;;;34.38;15.50;;;3.10;91.60;;;;;;5039878;28;20028;-88
2022/03/03 08:05:21;;;;;;;32.88;14.77;;;3.10;91.40;;;;;;5035213;28;20049;-90
2022/03/03 08:07:48;;;;;;;36.67;14.73;;;3.10;90.70;;;;;;5038212;28;20037;-89
2022/03/03 08:10:15;;;;;;;32.13;15.45;;;3.20;90.10;;;;;;5025837;28;20077;-89
2022/03/03 08:12:43;;;;;;;38.78;15.90;;;3.30;89.60;;;;;;5030263;28;20022;-90
2022/03/03 08:15:11;;;;;;;31.50;15.57;;;3.20;88.70;;;;;;5051497;28;20053;-88
2022/03/03 08:17:40;;;;;;;35.50;16.10;;;3.10;89.00;;;;;;5038343;28;20091;-88
2022/03/03 08:20:08;;;;;;;35.50;16.23;;;3.00;90.10;;;;;;5057625;28;20029;-88
2022/03/03 08:22:36;;;;;;;36.53;14.77;;;3.10;90.20;;;;;;5074208;28;20017;-89
2022/03/03 08:25:04;;;;;;;31.65;15.10;;;3.20;89.50;;;;;;5057701;28;20089;-90
2022/03/03 08:27:30;;;;;;;32.40;14.65;;;3.30;88.10;;;;;;5066558;28;20041;-90
2022/03/03 08:29:56;;;;;;;35.53;14.65;;;3.40;88.10;;;;;;5070085;28;20035;-89
2022/03/03 08:32:23;;;;;;;33.35;15.25;;;3.60;88.30;;;;;;5055713;28;20017;-87
2022/03/03 08:35:04;;;;;;;30.42;14.10;;;3.70;88.20;;;;;;5058122;28;20018;-89
2022/03/03 08:37:42;;;;;;;28.23;13.98;;;3.80;86.20;;;;;;5055844;28;20064;-87
2022/03/03 08:40:10;;;;;;;39.30;15.88;;;3.90;84.90;;;;;;5046330;28;20039;-87
2022/03/03 08:42:38;;;;;;;33.17;14.75;;;4.00;84.70;;;;;;5040899;28;20020;-88
2022/03/03 08:45:08;;;;;;;34.88;14.23;;;4.10;83.00;;;;;;5058051;28;20005;-88
2022/03/03 08:47:34;;;;;;;31.30;14.38;;;4.10;83.00;;;;;;5058027;28;20032;-87
2022/03/03 08:50:08;;;;;;;33.08;14.95;;;4.20;83.60;;;;;;5057327;28;20065;-85
2022/03/03 08:52:39;;;;;;;34.95;14.27;;;4.40;83.80;;;;;;5057229;28;20032;-88
2022/03/03 08:55:14;;;;;;;31.55;14.70;;;4.50;83.60;;;;;;5041307;28;20029;-88
2022/03/03 08:57:41;;;;;;;32.83;14.98;;;4.80;83.20;;;;;;5057835;28;20041;-90
2022/03/03 09:00:10;;;;;;;35.72;15.38;;;5.10;82.60;;;;;;5045499;28;20033;-87
2022/03/03 09:02:36;;;;;;;34.65;15.45;;;5.50;81.20;;;;;;5023896;28;20029;-87
2022/03/03 09:05:04;;;;;;;34.00;15.82;;;5.90;80.20;;;;;;5048069;28;20029;-88
2022/03/03 09:07:30;;;;;;;33.15;14.93;;;6.40;77.70;;;;;;5041153;28;20251;-88
2022/03/03 09:09:56;;;;;;;37.13;16.33;;;6.90;76.20;;;;;;5053061;28;20014;-89
2022/03/03 09:12:23;;;;;;;33.35;15.77;;;7.50;74.70;;;;;;5045129;28;20053;-89
2022/03/03 09:14:48;;;;;;;30.02;15.77;;;8.30;72.50;;;;;;5038043;28;20017;-89
2022/03/03 09:17:15;;;;;;;34.15;16.23;;;9.30;69.90;;;;;;5037946;28;20022;-89
2022/03/03 09:19:40;;;;;;;30.67;15.85;;;10.30;67.60;;;;;;5037997;28;20098;-88
2022/03/03 09:22:06;;;;;;;37.17;17.85;;;11.60;64.90;;;;;;5037319;28;20026;-88
2022/03/03 09:24:32;;;;;;;38.70;18.02;;;12.60;61.50;;;;;;5037345;28;20022;-88
2022/03/03 09:26:59;;;;;;;30.67;16.15;;;12.70;59.70;;;;;;5050126;28;20038;-89
2022/03/03 09:29:26;;;;;;;28.85;15.90;;;12.10;59.20;;;;;;5053474;28;20048;-90
2022/03/03 09:31:52;;;;;;;33.60;17.10;;;12.00;59.40;;;;;;5041516;28;20129;-88
2022/03/03 09:34:18;;;;;;;29.83;16.02;;;12.40;58.40;;;;;;5028834;28;20040;-88
2022/03/03 09:36:44;;;;;;;34.25;18.08;;;13.10;57.20;;;;;;5050769;28;20057;-89
2022/03/03 09:39:10;;;;;;;37.90;18.17;;;14.20;55.20;;;;;;5027399;28;20026;-87
2022/03/03 09:41:36;;;;;;;27.33;15.43;;;15.70;53.30;;;;;;5035460;28;20030;-88
2022/03/03 09:44:02;;;;;;;30.33;16.42;;;16.60;50.80;;;;;;5046539;28;20077;-88
2022/03/03 09:46:28;;;;;;;32.15;17.25;;;16.40;49.60;;;;;;5038576;28;20037;-89
2022/03/03 09:48:54;;;;;;;28.70;16.98;;;16.70;49.70;;;;;;5044803;28;20044;-88
2022/03/03 09:51:19;;;;;;;33.17;16.52;;;17.80;47.90;;;;;;5039043;23;20050;-84
2022/03/03 09:53:49;;;;;;;33.17;16.70;;;18.60;47.10;;;;;;4998047;28;20053;-87
2022/03/03 09:56:16;;;;;;;26.27;15.73;;;18.70;45.80;;;;;;4985124;28;20019;-85
2022/03/03 09:58:42;;;;;;;28.15;16.63;;;20.10;44.70;;;;;;4981380;28;20035;-85
2022/03/03 10:01:08;;;;;;;27.20;15.73;;;21.20;43.70;;;;;;4975842;28;20041;-83
2022/03/03 10:03:35;;;;;;;26.52;15.32;;;21.30;42.30;;;;;;4978728;28;20034;-86
2022/03/03 10:06:10;;;;;;;27.80;15.68;;;21.90;41.50;;;;;;4979540;28;20015;-86
2022/03/03 10:08:37;;;;;;;;;;;22.20;40.50;;;;;;4985564;28;20547;-87
2022/03/03 10:11:03;;;;;;;30.20;16.35;;;21.60;40.20;;;;;;4959189;28;19914;-87
2022/03/03 10:13:53;;;;;;;30.08;15.73;;;20.70;40.80;;;;;;4978172;28;20018;-86
2022/03/03 10:16:26;;;;;;;33.70;16.23;;;20.30;41.20;;;;;;4976296;28;20019;-85
2022/03/03 10:19:01;;;;;;;28.20;15.85;;;20.30;41.20;;;;;;4990137;28;20043;-86
2022/03/03 10:21:30;;;;;;;26.92;15.13;;;20.50;41.00;;;;;;4981763;28;20028;-86
2022/03/03 10:23:57;;;;;;;24.05;15.10;;;21.50;40.60;;;;;;4977099;28;20023;-85
2022/03/03 10:26:40;;;;;;;23.00;14.05;;;21.80;39.70;;;;;;4981150;28;20098;-85
2022/03/03 10:29:21;;;;;;;38.78;14.88;;;22.00;39.20;;;;;;4976087;28;20042;-86
2022/03/03 10:31:51;;;;;;;21.45;13.07;;;22.60;38.90;;;;;;4972570;28;20074;-86
2022/03/03 10:34:23;;;;;;;22.13;13.52;;;23.00;38.10;;;;;;4971376;29;20031;-86
2022/03/03 10:37:00;;;;;;;25.00;13.50;;;23.00;37.90;;;;;;4974679;28;20016;-83
2022/03/03 10:39:41;;;;;;;22.88;13.80;;;23.10;37.70;;;;;;4975875;28;20045;-85
2022/03/03 10:42:19;;;;;;;24.33;14.98;;;22.50;37.90;;;;;;4970072;28;20451;-86
2022/03/03 10:44:49;;;;;;;22.02;13.98;;;22.50;38.00;;;;;;4994287;28;20039;-84
2022/03/03 10:47:16;;;;;;;25.20;15.65;;;22.90;38.10;;;;;;4974704;28;20074;-84
2022/03/03 10:49:47;;;;;;;25.17;14.65;;;22.70;37.90;;;;;;4973619;28;20087;-86
2022/03/03 10:52:16;;;;;;;24.05;15.32;;;22.00;38.30;;;;;;4974930;28;20515;-86
2022/03/03 10:55:02;;;;;;;29.48;14.93;;;21.50;38.50;;;;;;4971520;28;20050;-86
2022/03/03 10:57:39;;;;;;;23.05;13.52;;;21.60;38.70;;;;;;4973190;28;20031;-84
2022/03/03 11:00:12;;;;;;;22.10;14.05;;;21.70;38.40;;;;;;4973742;28;20035;-88
2022/03/03 11:02:44;;;;;;;26.17;15.23;;;22.10;38.10;;;;;;4967215;28;20493;-86
2022/03/03 11:05:12;;;;;;;25.17;15.18;;;22.10;38.00;;;;;;4987264;28;20046;-84
2022/03/03 11:07:44;;;;;;;23.52;14.57;;;22.40;37.90;;;;;;4974021;29;20035;-84
2022/03/03 11:10:15;;;;;;;22.65;14.68;;;22.50;37.70;;;;;;4973549;29;20043;-85
2022/03/03 11:12:45;;;;;;;28.13;14.63;;;22.30;37.80;;;;;;4969511;28;20035;-85
2022/03/03 11:15:13;;;;;;;24.58;13.80;;;22.20;38.00;;;;;;4970772;29;20105;-85
2022/03/03 11:17:39;;;;;;;26.27;14.57;;;22.30;37.90;;;;;;4974173;28;20039;-86
2022/03/03 11:20:07;;;;;;;25.30;13.95;;;22.30;37.90;;;;;;4968137;28;20027;-85
2022/03/03 11:22:33;;;;;;;24.00;14.45;;;22.50;37.90;;;;;;4979598;28;20027;-84
2022/03/03 11:25:03;;;;;;;21.23;14.20;;;22.60;37.50;;;;;;4980370;28;20040;-83
2022/03/03 11:27:38;;;;;;;25.38;14.95;;;22.80;37.20;;;;;;4980002;28;20031;-83
2022/03/03 11:30:10;;;;;;;;;;;23.70;36.40;;;;;;4981323;28;20035;-84
2022/03/03 11:32:36;;;;;;;27.13;14.70;;;24.30;35.60;;;;;;4980921;28;19958;-84
2022/03/03 11:35:10;;;;;;;23.83;13.93;;;23.80;35.70;;;;;;4981057;28;20030;-83
2022/03/03 11:37:41;;;;;;;24.30;13.55;;;24.00;35.30;;;;;;4996237;28;20023;-84
2022/03/03 11:40:08;;;;;;;21.95;14.55;;;23.20;35.90;;;;;;4980375;28;20032;-83
2022/03/03 11:42:34;;;;;;;25.55;14.85;;;23.70;35.80;;;;;;4980602;28;20015;-82
2022/03/03 11:45:09;;;;;;;25.30;14.85;;;24.20;35.60;;;;;;4980973;28;20011;-82
2022/03/03 11:47:45;;;;;;;24.08;14.88;;;24.40;35.80;;;;;;4980048;28;20031;-82
2022/03/03 11:50:16;;;;;;;26.08;14.75;;;24.20;35.80;;;;;;4980977;28;20015;-83
2022/03/03 11:52:51;;;;;;;25.58;14.93;;;23.70;35.90;;;;;;4980483;28;20094;-83
2022/03/03 11:55:36;;;;;;;24.98;14.98;;;22.80;35.90;;;;;;4980176;28;20028;-82
2022/03/03 11:58:05;;;;;;;31.67;15.85;;;20.80;37.40;;;;;;4980923;28;20030;-85
2022/03/03 12:00:34;;;;;;;29.77;15.82;;;20.00;38.40;;;;;;4980817;28;20023;-86
2022/03/03 12:03:07;;;;;;;30.05;16.23;;;19.20;38.80;;;;;;4979769;28;20027;-83
2022/03/03 12:06:02;;;;;;;27.75;16.23;;;18.20;39.40;;;;;;4980351;28;20046;-83
2022/03/03 12:08:30;;;;;;;30.80;16.30;;;17.80;39.90;;;;;;4980069;28;20051;-82
2022/03/03 12:11:05;;;;;;;30.98;15.55;;;17.80;39.80;;;;;;4978972;28;20054;-86
2022/03/03 12:13:35;;;;;;;31.20;15.60;;;18.30;39.70;;;;;;4977711;28;20027;-85
2022/03/03 12:16:30;;;;;;;24.10;14.50;;;19.70;38.50;;;;;;4977942;28;20023;-83
2022/03/03 12:18:58;;;;;;;25.97;14.43;;;21.30;37.40;;;;;;4977701;28;20039;-86
2022/03/03 12:21:48;;;;;;;24.08;14.25;;;22.80;36.00;;;;;;4977287;28;20033;-86
2022/03/03 12:24:14;;;;;;;25.02;14.98;;;24.00;35.30;;;;;;4976973;28;20059;-86
2022/03/03 12:27:02;;;;;;;26.83;15.70;;;24.40;35.10;;;;;;4975639;28;20023;-84
2022/03/03 12:29:35;;;;;;;25.88;14.60;;;25.00;34.40;;;;;;4978621;28;20042;-84
2022/03/03 12:32:26;;;;;;;34.72;15.63;;;24.90;34.20;;;;;;4979368;28;20062;-85
2022/03/03 12:35:22;;;;;;;25.10;16.17;;;25.30;34.30;;;;;;4973539;28;20070;-83
2022/03/03 12:37:51;;;;;;;26.55;15.25;;;24.80;34.20;;;;;;4974543;29;20023;-84
2022/03/03 12:40:20;;;;;;;27.88;14.50;;;24.80;33.80;;;;;;4975794;28;20491;-84
2022/03/03 12:42:47;;;;;;;25.40;15.52;;;24.20;33.90;;;;;;4978771;28;20131;-84